Time;durP1;ratioP1;P1;durP2;ratioP2;P2;SDS_P1;SDS_P2;PMS_P1;PMS_P2;Temp;Humidity;BMP_temperature;BMP_pressure;BME280_temperature;BME280_humidity;BME280_pressure;Samples;Min_cycle;Max_cycle;Signal;HPM_P1;HPM_P2
2021/12/03 00:03:48;;;;;;;6.40;5.40;;;3.70;99.90;;;;;;10370900;28;20222;-72
2021/12/03 00:08:50;;;;;;;6.37;5.30;;;3.80;99.90;;;;;;10370693;28;20217;-73
2021/12/03 00:13:50;;;;;;;7.07;6.30;;;3.80;99.90;;;;;;10360051;28;20218;-71
2021/12/03 00:18:51;;;;;;;6.80;5.30;;;3.90;99.90;;;;;;10369027;28;20685;-70
2021/12/03 00:23:53;;;;;;;7.67;5.83;;;3.90;99.90;;;;;;10366380;28;20309;-72
2021/12/03 00:28:54;;;;;;;6.27;5.57;;;3.90;99.90;;;;;;10364450;28;20220;-70
2021/12/03 00:33:54;;;;;;;6.70;5.80;;;3.90;99.90;;;;;;10358618;28;20218;-72
2021/12/03 00:38:58;;;;;;;7.53;5.17;;;3.80;99.90;;;;;;10365956;28;20217;-73
2021/12/03 00:43:59;;;;;;;6.73;5.33;;;3.50;99.90;;;;;;10367168;28;20633;-71
2021/12/03 00:49:00;;;;;;;6.10;5.43;;;3.20;99.90;;;;;;10356375;28;20282;-70
2021/12/03 00:54:00;;;;;;;6.97;6.07;;;3.00;99.90;;;;;;10369694;28;20231;-72
2021/12/03 00:59:06;;;;;;;7.37;5.07;;;2.80;99.90;;;;;;10366936;28;20224;-71
2021/12/03 01:04:09;;;;;;;8.63;6.63;;;2.60;99.90;;;;;;10361764;28;20630;-70
2021/12/03 01:09:10;;;;;;;13.97;10.20;;;2.40;99.90;;;;;;10354138;28;20226;-71
2021/12/03 01:14:11;;;;;;;13.70;9.73;;;2.30;99.90;;;;;;10360907;28;20217;-70
2021/12/03 01:19:12;;;;;;;28.57;17.37;;;2.20;99.90;;;;;;10354712;28;20227;-69
2021/12/03 01:24:13;;;;;;;47.87;27.00;;;2.10;99.90;;;;;;10366210;28;20290;-71
2021/12/03 01:29:14;;;;;;;12.47;9.23;;;2.10;99.90;;;;;;10359703;28;20233;-71
2021/12/03 01:34:15;;;;;;;9.70;7.10;;;2.00;99.90;;;;;;10362509;28;20277;-72
2021/12/03 01:39:16;;;;;;;8.17;6.83;;;1.90;99.90;;;;;;10373790;28;20233;-72
2021/12/03 01:44:17;;;;;;;7.57;6.77;;;1.80;99.90;;;;;;10353434;28;20594;-72
2021/12/03 01:49:18;;;;;;;7.93;6.77;;;1.80;99.90;;;;;;10364297;28;20225;-71
2021/12/03 01:54:19;;;;;;;7.43;6.53;;;1.80;99.90;;;;;;10356403;28;20300;-71
2021/12/03 01:59:20;;;;;;;9.33;7.17;;;1.70;99.90;;;;;;10379856;28;20741;-71
2021/12/03 02:04:21;;;;;;;7.60;6.63;;;1.70;99.90;;;;;;10353027;28;20563;-71
2021/12/03 02:09:22;;;;;;;7.90;6.83;;;1.60;99.90;;;;;;10362036;28;20316;-71
2021/12/03 02:14:23;;;;;;;9.13;6.57;;;1.50;99.90;;;;;;10361315;28;20220;-70
2021/12/03 02:19:24;;;;;;;7.77;6.07;;;1.50;99.90;;;;;;10356308;28;20664;-70
2021/12/03 02:24:28;;;;;;;8.40;6.73;;;1.40;99.90;;;;;;10368252;28;20221;-71
2021/12/03 02:29:30;;;;;;;9.00;6.83;;;1.40;99.90;;;;;;10363605;28;20295;-70
2021/12/03 02:34:31;;;;;;;8.17;6.33;;;1.30;99.90;;;;;;10359907;28;20299;-70
2021/12/03 02:39:34;;;;;;;9.03;7.00;;;1.30;99.90;;;;;;10360508;28;20774;-71
2021/12/03 02:44:41;;;;;;;7.40;6.43;;;1.20;99.90;;;;;;10383698;28;20232;-72
2021/12/03 02:49:42;;;;;;;10.37;8.47;;;1.20;99.90;;;;;;10374393;28;20240;-71
2021/12/03 02:54:43;;;;;;;11.33;8.47;;;1.20;99.90;;;;;;10363521;28;20214;-71
2021/12/03 02:59:43;;;;;;;10.03;8.00;;;1.10;99.90;;;;;;10364252;28;20587;-70
2021/12/03 03:04:44;;;;;;;9.87;8.13;;;1.20;99.90;;;;;;10373493;28;20221;-71
2021/12/03 03:09:46;;;;;;;11.07;8.97;;;1.20;99.90;;;;;;10368174;28;20849;-69
2021/12/03 03:14:53;;;;;;;10.10;8.40;;;1.20;99.90;;;;;;10359388;28;20249;-69
2021/12/03 03:19:55;;;;;;;11.60;8.57;;;1.20;99.90;;;;;;10371101;28;20225;-69
2021/12/03 03:24:59;;;;;;;11.87;8.90;;;1.10;99.90;;;;;;10371459;28;20217;-70
2021/12/03 03:30:00;;;;;;;12.53;9.37;;;1.10;99.90;;;;;;10364181;28;20742;-69
2021/12/03 03:35:02;;;;;;;12.20;8.80;;;1.10;99.90;;;;;;10362132;28;20230;-71
2021/12/03 03:40:04;;;;;;;10.23;9.10;;;1.00;99.90;;;;;;10370984;28;20228;-71
2021/12/03 03:45:09;;;;;;;14.13;9.57;;;1.00;99.90;;;;;;10366176;28;20279;-70
2021/12/03 03:50:12;;;;;;;13.07;10.23;;;0.90;99.90;;;;;;10355235;28;20206;-70
2021/12/03 03:55:14;;;;;;;12.70;9.10;;;1.00;99.90;;;;;;10361084;28;20183;-71
2021/12/03 04:00:20;;;;;;;11.63;9.00;;;1.00;99.90;;;;;;10372045;28;20182;-70
2021/12/03 04:05:20;;;;;;;12.53;8.90;;;1.00;99.90;;;;;;10357550;28;20629;-71
2021/12/03 04:10:22;;;;;;;11.60;8.23;;;1.00;99.90;;;;;;10366069;28;20222;-71
2021/12/03 04:15:23;;;;;;;10.80;8.27;;;0.90;99.90;;;;;;10365045;28;20695;-71
2021/12/03 04:20:24;;;;;;;12.00;8.10;;;0.80;99.90;;;;;;10373573;28;20271;-72
2021/12/03 04:25:24;;;;;;;15.37;9.53;;;0.80;99.90;;;;;;10366502;28;20573;-70
2021/12/03 04:30:28;;;;;;;10.23;7.97;;;0.70;99.90;;;;;;10362404;28;20760;-70
2021/12/03 04:35:30;;;;;;;10.30;8.27;;;0.70;99.90;;;;;;10364430;28;20348;-71
2021/12/03 04:40:31;;;;;;;10.83;8.57;;;0.60;99.90;;;;;;10367056;28;20588;-70
2021/12/03 04:45:32;;;;;;;9.97;7.93;;;0.60;99.90;;;;;;10359920;28;20229;-70
2021/12/03 04:50:36;;;;;;;10.40;7.97;;;0.60;99.90;;;;;;10361800;28;20239;-70
2021/12/03 04:55:38;;;;;;;10.80;7.97;;;0.60;99.90;;;;;;10365507;28;20359;-70
2021/12/03 05:00:51;;;;;;;12.53;8.47;;;0.50;99.90;;;;;;10364138;28;20339;-70
2021/12/03 05:05:56;;;;;;;12.63;9.40;;;0.40;99.90;;;;;;10359050;28;20571;-69
2021/12/03 05:11:01;;;;;;;13.87;9.57;;;0.40;99.90;;;;;;10360210;28;20262;-71
2021/12/03 05:16:03;;;;;;;14.57;9.57;;;0.40;99.90;;;;;;10368179;28;20360;-71
2021/12/03 05:21:04;;;;;;;12.53;9.67;;;0.40;99.90;;;;;;10356724;28;20594;-71
2021/12/03 05:26:05;;;;;;;12.00;9.07;;;0.40;99.90;;;;;;10365158;28;20232;-71
2021/12/03 05:31:07;;;;;;;12.50;9.60;;;0.50;99.90;;;;;;10363830;28;20311;-70
2021/12/03 05:36:07;;;;;;;11.77;8.87;;;0.50;99.90;;;;;;10359503;28;20228;-70
2021/12/03 05:41:08;;;;;;;11.83;8.23;;;0.40;99.90;;;;;;10364604;28;20221;-70
2021/12/03 05:46:09;;;;;;;16.17;9.37;;;0.40;99.90;;;;;;10352566;28;20320;-69
2021/12/03 05:51:10;;;;;;;11.20;8.03;;;0.40;99.90;;;;;;10367024;28;20227;-72
2021/12/03 05:56:11;;;;;;;10.70;7.97;;;0.30;99.90;;;;;;10355742;28;20744;-72
2021/12/03 06:01:11;;;;;;;13.43;8.23;;;0.40;99.90;;;;;;10358356;28;20221;-72
2021/12/03 06:06:13;;;;;;;11.87;7.67;;;0.30;99.90;;;;;;10364903;28;20285;-71
2021/12/03 06:11:13;;;;;;;11.33;7.80;;;0.30;99.90;;;;;;10375742;28;20255;-69
2021/12/03 06:16:14;;;;;;;10.80;6.73;;;0.30;99.90;;;;;;10360852;28;20306;-68
2021/12/03 06:21:15;;;;;;;10.17;6.77;;;0.30;99.90;;;;;;10378627;28;20263;-70
2021/12/03 06:26:16;;;;;;;13.63;7.60;;;0.40;99.90;;;;;;10368429;28;20244;-71
2021/12/03 06:31:16;;;;;;;31.73;15.63;;;0.30;99.90;;;;;;10365375;28;20255;-70
2021/12/03 06:36:17;;;;;;;19.87;11.83;;;0.30;99.90;;;;;;10358978;28;20599;-71
2021/12/03 06:41:17;;;;;;;12.60;8.03;;;0.30;99.90;;;;;;10359522;28;20572;-71
2021/12/03 06:46:18;;;;;;;13.83;7.30;;;0.30;99.90;;;;;;10370398;28;20224;-70
2021/12/03 06:51:19;;;;;;;10.50;7.87;;;0.40;99.90;;;;;;10374967;28;20221;-71
2021/12/03 06:56:21;;;;;;;8.97;6.83;;;0.40;99.90;;;;;;10361307;28;20304;-71
2021/12/03 07:01:22;;;;;;;13.17;7.17;;;0.40;99.90;;;;;;10364591;28;20804;-72
2021/12/03 07:06:23;;;;;;;10.17;7.13;;;0.50;99.90;;;;;;10365459;28;20314;-71
2021/12/03 07:11:23;;;;;;;10.70;7.70;;;0.50;99.90;;;;;;10360204;28;20257;-71
2021/12/03 07:16:24;;;;;;;13.43;8.23;;;0.60;99.90;;;;;;10378767;28;20282;-69
2021/12/03 07:21:25;;;;;;;9.20;7.13;;;0.60;99.90;;;;;;10363761;28;20224;-72
2021/12/03 07:26:26;;;;;;;11.60;7.43;;;0.70;99.90;;;;;;10377701;28;20326;-70
2021/12/03 07:31:27;;;;;;;8.60;7.03;;;0.70;99.90;;;;;;10368536;28;20229;-70
2021/12/03 07:36:27;;;;;;;10.90;7.50;;;0.80;99.90;;;;;;10357858;28;20219;-71
2021/12/03 07:41:28;;;;;;;10.40;7.03;;;0.90;99.90;;;;;;10361867;28;20373;-68
2021/12/03 08:04:19;;;;;;;12.80;7.03;;;1.60;99.90;;;;;;10352674;28;20221;-69
2021/12/03 08:09:22;;;;;;;9.47;6.80;;;1.80;99.90;;;;;;10367096;28;20221;-68
2021/12/03 08:14:22;;;;;;;8.27;6.57;;;2.00;99.90;;;;;;10354888;28;20218;-68
2021/12/03 08:19:23;;;;;;;7.77;6.10;;;2.40;99.90;;;;;;10367128;28;20587;-68
2021/12/03 08:24:24;;;;;;;11.60;6.20;;;2.80;99.90;;;;;;10367460;28;20213;-70
2021/12/03 08:29:24;;;;;;;13.17;6.87;;;2.80;99.90;;;;;;10372804;28;20213;-70
2021/12/03 08:34:25;;;;;;;12.47;7.50;;;2.70;99.90;;;;;;10363626;28;20260;-70
2021/12/03 08:39:27;;;;;;;10.20;6.37;;;2.80;99.90;;;;;;10360842;28;20221;-71
2021/12/03 08:44:28;;;;;;;9.23;5.93;;;3.90;99.90;;;;;;10360980;28;20224;-70
2021/12/03 08:49:32;;;;;;;8.00;5.47;;;7.20;99.90;;;;;;10357062;28;20213;-72
2021/12/03 08:54:55;;;;;;;7.63;5.20;;;8.70;99.90;;;;;;10365042;28;20213;-69
2021/12/03 08:59:58;;;;;;;7.00;5.30;;;9.00;99.90;;;;;;10360377;28;20221;-68
2021/12/03 09:04:58;;;;;;;8.83;5.57;;;8.60;99.90;;;;;;10360067;28;20217;-68
2021/12/03 09:09:59;;;;;;;9.57;7.10;;;7.60;99.90;;;;;;10359150;28;20240;-70
2021/12/03 09:15:06;;;;;;;9.67;6.80;;;6.30;99.90;;;;;;10362300;28;20231;-70
2021/12/03 09:25:30;;;;;;;11.00;5.90;;;5.70;99.90;;;;;;10352203;28;20296;-70
2021/12/03 09:30:36;;;;;;;8.17;5.53;;;8.30;99.90;;;;;;10376449;28;20227;-72
2021/12/03 09:35:50;;;;;;;9.43;6.20;;;11.40;99.90;;;;;;10367647;28;20215;-71
2021/12/03 09:40:52;;;;;;;8.93;6.40;;;10.50;98.60;;;;;;10365437;28;20755;-72
2021/12/03 09:46:02;;;;;;;9.67;6.03;;;12.20;95.30;;;;;;10365634;28;20246;-70
2021/12/03 09:51:03;;;;;;;7.23;5.90;;;13.90;85.20;;;;;;10357750;28;20262;-72
2021/12/03 09:56:04;;;;;;;8.07;5.97;;;14.60;75.00;;;;;;10341437;28;20234;-71
2021/12/03 10:01:11;;;;;;;7.60;5.43;;;15.00;72.00;;;;;;10349406;28;20233;-70
2021/12/03 13:29:15;;;;;;;5.30;4.47;;;4.20;99.90;;;;;;10359276;28;20219;-73
2021/12/03 13:40:20;;;;;;;6.87;4.70;;;4.10;99.90;;;;;;10379811;28;20217;-72
2021/12/03 14:42:54;;;;;;;5.93;3.23;;;4.10;99.90;;;;;;10364365;28;20221;-70
2021/12/03 14:58:33;;;;;;;4.57;3.30;;;4.00;99.90;;;;;;10362956;28;20561;-70
2021/12/03 15:03:45;;;;;;;6.80;3.00;;;4.00;99.90;;;;;;10367326;28;20240;-70
2021/12/03 15:20:09;;;;;;;6.13;2.77;;;3.90;99.90;;;;;;10363399;28;20217;-71
2021/12/03 15:24:55;;;;;;;4.10;2.53;;;3.80;99.90;;;;;;10360285;28;20307;-71
2021/12/03 15:36:05;;;;;;;5.47;2.90;;;3.70;99.90;;;;;;10366499;28;20206;-72
2021/12/03 16:17:13;;;;;;;6.90;3.30;;;3.30;99.90;;;;;;10366742;28;20217;-70
2021/12/03 16:22:39;;;;;;;6.97;3.50;;;3.20;99.90;;;;;;10364717;28;20236;-69
2021/12/03 16:54:11;;;;;;;7.23;5.17;;;3.20;99.90;;;;;;10365232;28;20220;-70
2021/12/03 16:59:13;;;;;;;9.90;5.33;;;3.30;99.90;;;;;;10367837;28;20686;-70
2021/12/03 17:20:33;;;;;;;9.53;6.17;;;3.20;99.90;;;;;;10351219;28;20710;-71
2021/12/03 17:56:44;;;;;;;7.53;5.57;;;3.50;99.90;;;;;;10349245;28;20262;-71
2021/12/03 18:07:01;;;;;;;11.87;6.07;;;3.60;99.90;;;;;;10347583;28;20229;-71
2021/12/03 18:59:08;;;;;;;12.00;5.67;;;3.80;99.90;;;;;;10350372;28;20403;-70
2021/12/03 19:04:32;;;;;;;7.63;5.37;;;3.80;99.90;;;;;;10343429;28;20317;-72
2021/12/03 19:09:42;;;;;;;6.67;4.77;;;3.80;99.90;;;;;;10346500;28;20240;-71
2021/12/03 19:14:50;;;;;;;6.60;4.90;;;3.80;99.90;;;;;;10351368;28;20217;-71
2021/12/03 19:20:00;;;;;;;7.23;4.90;;;3.80;99.90;;;;;;10346881;28;20268;-70
2021/12/03 19:25:01;;;;;;;7.83;5.10;;;3.80;99.90;;;;;;10355846;28;20221;-70
2021/12/03 19:30:04;;;;;;;7.67;5.30;;;3.80;99.90;;;;;;10352361;28;20229;-70
2021/12/03 19:35:05;;;;;;;10.37;5.50;;;3.80;99.90;;;;;;10352244;28;20236;-71
2021/12/03 19:40:11;;;;;;;9.70;5.60;;;3.80;99.90;;;;;;10355816;28;20201;-70
2021/12/03 19:45:20;;;;;;;7.17;4.73;;;3.80;99.90;;;;;;10357496;28;20203;-70
2021/12/03 19:50:38;;;;;;;7.33;4.87;;;3.80;99.90;;;;;;10353918;28;20663;-71
2021/12/03 19:55:44;;;;;;;7.40;5.20;;;3.80;99.90;;;;;;10352540;28;20225;-70
2021/12/03 20:00:46;;;;;;;12.27;5.37;;;3.90;99.90;;;;;;10376049;28;20272;-70
2021/12/03 20:05:46;;;;;;;6.20;4.53;;;3.90;99.90;;;;;;10351407;28;20261;-70
2021/12/03 20:10:49;;;;;;;8.37;4.67;;;3.90;99.90;;;;;;10351555;28;20312;-70
2021/12/03 20:21:06;;;;;;;9.50;4.60;;;4.00;99.90;;;;;;10354375;28;20232;-70
2021/12/03 20:31:19;;;;;;;6.47;4.23;;;4.00;99.90;;;;;;10354316;28;20221;-70
2021/12/03 20:36:33;;;;;;;8.47;4.97;;;4.00;99.90;;;;;;10347634;28;20225;-70
2021/12/03 20:52:09;;;;;;;9.63;5.13;;;4.00;99.90;;;;;;10351194;28;20221;-70
2021/12/03 20:57:43;;;;;;;6.30;4.57;;;4.10;99.90;;;;;;10368126;28;20217;-71
2021/12/03 21:13:14;;;;;;;4.67;3.73;;;4.10;99.90;;;;;;10345695;28;20222;-69
2021/12/03 21:18:40;;;;;;;7.70;3.93;;;4.10;99.90;;;;;;10351712;28;20269;-70
2021/12/03 21:23:44;;;;;;;6.60;3.77;;;4.10;99.90;;;;;;10336932;28;20243;-69
2021/12/03 21:39:21;;;;;;;8.57;4.17;;;4.20;99.90;;;;;;10345598;28;20225;-70
2021/12/03 21:44:22;;;;;;;6.57;4.27;;;4.20;99.90;;;;;;10345118;28;20225;-71
2021/12/03 21:49:23;;;;;;;6.07;3.37;;;4.20;99.90;;;;;;10350945;28;20235;-70
2021/12/03 21:54:24;;;;;;;6.37;4.23;;;4.20;99.90;;;;;;10338138;28;20217;-70
2021/12/03 21:59:24;;;;;;;8.40;4.37;;;4.10;99.90;;;;;;10311913;28;20309;-71
2021/12/03 22:04:25;;;;;;;6.73;4.00;;;4.20;99.90;;;;;;10345977;28;20229;-70
2021/12/03 22:09:26;;;;;;;8.17;3.40;;;4.20;99.90;;;;;;10345722;28;20225;-69
2021/12/03 22:14:27;;;;;;;5.10;3.27;;;4.20;99.90;;;;;;10352772;28;20219;-69
2021/12/03 22:19:28;;;;;;;4.63;3.10;;;4.10;99.90;;;;;;10345212;28;20222;-71
2021/12/03 22:24:28;;;;;;;3.60;2.80;;;4.10;99.90;;;;;;10349253;28;20231;-71
2021/12/03 22:29:29;;;;;;;8.27;3.53;;;4.10;99.90;;;;;;10345080;28;20641;-69
2021/12/03 22:34:30;;;;;;;4.20;3.23;;;4.10;99.90;;;;;;10348114;28;20635;-70
2021/12/03 22:39:31;;;;;;;5.67;3.53;;;4.20;99.90;;;;;;10360982;28;20759;-71
2021/12/03 22:44:32;;;;;;;6.07;3.37;;;4.20;99.90;;;;;;10367867;28;20229;-70
2021/12/03 22:49:42;;;;;;;3.33;2.83;;;4.20;99.90;;;;;;10350152;28;20236;-71
2021/12/03 22:54:43;;;;;;;6.07;3.37;;;4.20;99.90;;;;;;10347333;28;20221;-70
2021/12/03 22:59:44;;;;;;;5.13;3.90;;;4.20;99.90;;;;;;10355050;28;20228;-71
2021/12/03 23:04:45;;;;;;;6.70;3.10;;;4.20;99.90;;;;;;10366303;28;20608;-70
2021/12/03 23:09:46;;;;;;;7.30;3.43;;;4.20;99.90;;;;;;10361460;28;20218;-71
2021/12/03 23:14:46;;;;;;;7.70;3.30;;;4.20;99.90;;;;;;10358450;28;20225;-70
2021/12/03 23:19:47;;;;;;;6.57;3.77;;;4.20;99.90;;;;;;10353828;28;20220;-71
2021/12/03 23:24:47;;;;;;;5.10;3.40;;;4.10;99.90;;;;;;10355748;28;20327;-70
2021/12/03 23:29:49;;;;;;;6.33;3.90;;;4.00;99.90;;;;;;10355216;28;20253;-70
2021/12/03 23:34:50;;;;;;;9.43;4.47;;;3.90;99.90;;;;;;10362914;28;20248;-70
2021/12/03 23:39:50;;;;;;;9.23;4.63;;;3.70;99.90;;;;;;10343098;28;20224;-71
2021/12/03 23:44:54;;;;;;;8.83;4.37;;;3.60;99.90;;;;;;10362772;28;20225;-70
2021/12/03 23:49:54;;;;;;;6.93;4.20;;;3.60;99.90;;;;;;10359383;28;20209;-70
2021/12/03 23:54:58;;;;;;;7.53;3.63;;;3.60;99.90;;;;;;10351342;28;20214;-69
2021/12/03 23:59:59;;;;;;;6.07;3.17;;;3.60;99.90;;;;;;10328524;28;20613;-71
